sensor_id;sensor_type;location;lat;lon;timestamp;pressure;altitude;pressure_sealevel;temperature;humidity
44138;BME280;29800;55.942;37.314;2022-12-07T00:01:08;100593.72;;;-4.99;40.73
44138;BME280;29800;55.942;37.314;2022-12-07T00:03:37;100588.06;;;-5.05;41.04
44138;BME280;29800;55.942;37.314;2022-12-07T00:06:05;100587.22;;;-5.06;40.68
44138;BME280;29800;55.942;37.314;2022-12-07T00:08:34;100580.19;;;-5.07;40.88
44138;BME280;29800;55.942;37.314;2022-12-07T00:11:06;100576.75;;;-4.97;41.15
44138;BME280;29800;55.942;37.314;2022-12-07T00:13:33;100586.59;;;-4.98;41.03
44138;BME280;29800;55.942;37.314;2022-12-07T00:16:05;100596.16;;;-4.95;40.80
44138;BME280;29800;55.942;37.314;2022-12-07T00:18:32;100588.38;;;-4.99;40.96
44138;BME280;29800;55.942;37.314;2022-12-07T00:21:13;100587.28;;;-4.96;41.01
44138;BME280;29800;55.942;37.314;2022-12-07T00:23:45;100583.25;;;-4.90;40.60
44138;BME280;29800;55.942;37.314;2022-12-07T00:26:15;100578.66;;;-4.88;41.35
44138;BME280;29800;55.942;37.314;2022-12-07T00:28:48;100590.69;;;-4.94;40.71
44138;BME280;29800;55.942;37.314;2022-12-07T00:31:16;100588.13;;;-4.95;41.54
44138;BME280;29800;55.942;37.314;2022-12-07T00:33:43;100591.06;;;-4.99;41.35
44138;BME280;29800;55.942;37.314;2022-12-07T00:36:11;100581.63;;;-5.03;41.58
44138;BME280;29800;55.942;37.314;2022-12-07T00:38:42;100595.75;;;-5.12;41.47
44138;BME280;29800;55.942;37.314;2022-12-07T00:41:13;100597.19;;;-5.08;41.28
44138;BME280;29800;55.942;37.314;2022-12-07T00:43:41;100593.94;;;-5.11;40.91
44138;BME280;29800;55.942;37.314;2022-12-07T00:46:08;100593.06;;;-5.12;40.68
44138;BME280;29800;55.942;37.314;2022-12-07T00:48:34;100599.53;;;-5.14;41.07
44138;BME280;29800;55.942;37.314;2022-12-07T00:51:00;100604.50;;;-5.10;40.96
44138;BME280;29800;55.942;37.314;2022-12-07T00:53:27;100599.84;;;-5.08;40.91
44138;BME280;29800;55.942;37.314;2022-12-07T00:55:53;100584.69;;;-5.07;41.27
44138;BME280;29800;55.942;37.314;2022-12-07T00:58:22;100585.81;;;-5.10;41.27
44138;BME280;29800;55.942;37.314;2022-12-07T01:00:51;100587.47;;;-5.09;40.86
44138;BME280;29800;55.942;37.314;2022-12-07T01:03:17;100587.97;;;-5.15;41.08
44138;BME280;29800;55.942;37.314;2022-12-07T01:05:51;100590.66;;;-5.15;41.21
44138;BME280;29800;55.942;37.314;2022-12-07T01:08:18;100589.94;;;-5.17;41.08
44138;BME280;29800;55.942;37.314;2022-12-07T01:10:44;100588.38;;;-5.20;41.17
44138;BME280;29800;55.942;37.314;2022-12-07T01:13:10;100586.09;;;-5.24;41.57
44138;BME280;29800;55.942;37.314;2022-12-07T01:15:46;100589.09;;;-5.18;41.36
44138;BME280;29800;55.942;37.314;2022-12-07T01:18:14;100587.97;;;-5.15;41.48
44138;BME280;29800;55.942;37.314;2022-12-07T01:20:41;100583.63;;;-5.16;41.15
44138;BME280;29800;55.942;37.314;2022-12-07T01:23:10;100588.84;;;-5.14;41.05
44138;BME280;29800;55.942;37.314;2022-12-07T01:25:36;100586.75;;;-5.11;41.15
44138;BME280;29800;55.942;37.314;2022-12-07T01:28:02;100585.81;;;-5.10;41.16
44138;BME280;29800;55.942;37.314;2022-12-07T01:30:28;100586.06;;;-5.13;40.92
44138;BME280;29800;55.942;37.314;2022-12-07T01:32:55;100581.69;;;-5.14;41.14
44138;BME280;29800;55.942;37.314;2022-12-07T01:35:21;100580.97;;;-5.16;41.16
44138;BME280;29800;55.942;37.314;2022-12-07T01:37:50;100577.44;;;-5.17;41.52
44138;BME280;29800;55.942;37.314;2022-12-07T01:40:17;100580.97;;;-5.16;40.91
44138;BME280;29800;55.942;37.314;2022-12-07T01:42:43;100577.84;;;-5.21;41.03
44138;BME280;29800;55.942;37.314;2022-12-07T01:45:39;100573.91;;;-5.17;41.97
44138;BME280;29800;55.942;37.314;2022-12-07T01:48:06;100574.91;;;-5.18;40.94
44138;BME280;29800;55.942;37.314;2022-12-07T01:50:35;100578.34;;;-5.27;41.45
44138;BME280;29800;55.942;37.314;2022-12-07T01:53:03;100578.34;;;-5.27;41.39
44138;BME280;29800;55.942;37.314;2022-12-07T01:55:32;100576.63;;;-5.28;41.62
44138;BME280;29800;55.942;37.314;2022-12-07T01:58:00;100572.75;;;-5.24;41.14
44138;BME280;29800;55.942;37.314;2022-12-07T02:00:26;100574.97;;;-5.29;40.84
44138;BME280;29800;55.942;37.314;2022-12-07T02:05:30;100574.63;;;-5.36;41.70
44138;BME280;29800;55.942;37.314;2022-12-07T02:08:00;100574.97;;;-5.29;41.31
44138;BME280;29800;55.942;37.314;2022-12-07T02:10:30;100573.50;;;-5.33;41.24
44138;BME280;29800;55.942;37.314;2022-12-07T02:15:46;100564.78;;;-5.36;41.11
44138;BME280;29800;55.942;37.314;2022-12-07T02:18:23;100563.06;;;-5.37;41.00
44138;BME280;29800;55.942;37.314;2022-12-07T02:24:19;100562.13;;;-5.36;41.08
44138;BME280;29800;55.942;37.314;2022-12-07T02:27:22;100564.09;;;-5.49;41.50
44138;BME280;29800;55.942;37.314;2022-12-07T02:30:22;100558.75;;;-5.49;41.34
44138;BME280;29800;55.942;37.314;2022-12-07T02:33:15;100553.59;;;-5.62;41.63
44138;BME280;29800;55.942;37.314;2022-12-07T02:35:50;100551.78;;;-5.73;41.40
44138;BME280;29800;55.942;37.314;2022-12-07T02:43:41;100557.63;;;-5.79;41.97
44138;BME280;29800;55.942;37.314;2022-12-07T02:46:16;100548.41;;;-5.75;42.02
44138;BME280;29800;55.942;37.314;2022-12-07T02:48:43;100563.91;;;-5.68;42.30
44138;BME280;29800;55.942;37.314;2022-12-07T02:51:11;100561.13;;;-5.67;41.66
44138;BME280;29800;55.942;37.314;2022-12-07T02:53:42;100553.84;;;-5.65;41.59
44138;BME280;29800;55.942;37.314;2022-12-07T02:56:33;100551.25;;;-5.55;41.53
44138;BME280;29800;55.942;37.314;2022-12-07T03:07:39;100553.50;;;-5.72;41.97
44138;BME280;29800;55.942;37.314;2022-12-07T03:15:35;100556.31;;;-5.84;41.96
44138;BME280;29800;55.942;37.314;2022-12-07T03:18:06;100561.25;;;-5.80;41.57
44138;BME280;29800;55.942;37.314;2022-12-07T03:20:33;100555.94;;;-5.80;41.82
44138;BME280;29800;55.942;37.314;2022-12-07T03:23:04;100564.66;;;-5.78;41.54
44138;BME280;29800;55.942;37.314;2022-12-07T03:25:40;100554.75;;;-5.87;42.18
44138;BME280;29800;55.942;37.314;2022-12-07T03:28:09;100555.81;;;-5.89;41.67
44138;BME280;29800;55.942;37.314;2022-12-07T03:30:49;100552.19;;;-5.88;41.94
44138;BME280;29800;55.942;37.314;2022-12-07T03:33:29;100556.66;;;-5.89;42.54
44138;BME280;29800;55.942;37.314;2022-12-07T03:36:11;100553.75;;;-5.86;41.90
44138;BME280;29800;55.942;37.314;2022-12-07T03:38:50;100544.78;;;-5.85;42.24
44138;BME280;29800;55.942;37.314;2022-12-07T03:41:25;100549.13;;;-5.84;41.83
44138;BME280;29800;55.942;37.314;2022-12-07T03:43:54;100539.09;;;-5.80;41.81
44138;BME280;29800;55.942;37.314;2022-12-07T03:49:24;100548.16;;;-5.72;41.76
44138;BME280;29800;55.942;37.314;2022-12-07T03:58:09;100542.13;;;-5.85;41.90
44138;BME280;29800;55.942;37.314;2022-12-07T04:00:37;100543.81;;;-5.95;42.18
44138;BME280;29800;55.942;37.314;2022-12-07T04:03:03;100538.69;;;-5.97;42.01
44138;BME280;29800;55.942;37.314;2022-12-07T04:05:29;100543.34;;;-5.89;41.68
44138;BME280;29800;55.942;37.314;2022-12-07T04:07:56;100536.78;;;-5.85;42.54
44138;BME280;29800;55.942;37.314;2022-12-07T04:10:22;100541.34;;;-5.76;42.18
44138;BME280;29800;55.942;37.314;2022-12-07T04:12:48;100532.16;;;-5.72;41.86
44138;BME280;29800;55.942;37.314;2022-12-07T04:15:14;100528.53;;;-5.70;42.42
44138;BME280;29800;55.942;37.314;2022-12-07T04:17:40;100528.25;;;-5.67;41.86
44138;BME280;29800;55.942;37.314;2022-12-07T04:20:07;100534.44;;;-5.67;41.87
44138;BME280;29800;55.942;37.314;2022-12-07T04:22:33;100525.91;;;-5.61;41.76
44138;BME280;29800;55.942;37.314;2022-12-07T04:24:59;100531.78;;;-5.67;41.75
44138;BME280;29800;55.942;37.314;2022-12-07T04:27:26;100533.63;;;-5.79;42.04
44138;BME280;29800;55.942;37.314;2022-12-07T04:29:52;100525.00;;;-5.82;42.21
44138;BME280;29800;55.942;37.314;2022-12-07T04:32:18;100519.81;;;-5.84;42.25
44138;BME280;29800;55.942;37.314;2022-12-07T04:34:48;100521.38;;;-5.81;42.46
44138;BME280;29800;55.942;37.314;2022-12-07T04:37:14;100525.63;;;-5.79;42.25
44138;BME280;29800;55.942;37.314;2022-12-07T04:39:40;100514.69;;;-5.76;42.00
44138;BME280;29800;55.942;37.314;2022-12-07T04:42:06;100517.22;;;-5.74;42.41
44138;BME280;29800;55.942;37.314;2022-12-07T04:44:32;100520.66;;;-5.72;42.04
44138;BME280;29800;55.942;37.314;2022-12-07T04:46:58;100517.22;;;-5.74;42.21
44138;BME280;29800;55.942;37.314;2022-12-07T04:49:25;100521.97;;;-5.78;42.42
44138;BME280;29800;55.942;37.314;2022-12-07T04:51:51;100528.91;;;-5.75;42.37
44138;BME280;29800;55.942;37.314;2022-12-07T04:54:18;100522.47;;;-5.84;42.54
44138;BME280;29800;55.942;37.314;2022-12-07T04:56:44;100526.13;;;-5.85;42.78
44138;BME280;29800;55.942;37.314;2022-12-07T04:59:11;100524.19;;;-5.83;42.92
44138;BME280;29800;55.942;37.314;2022-12-07T05:01:38;100532.16;;;-5.72;43.19
44138;BME280;29800;55.942;37.314;2022-12-07T05:04:04;100528.34;;;-5.58;42.40
44138;BME280;29800;55.942;37.314;2022-12-07T05:06:31;100527.84;;;-5.51;42.41
44138;BME280;29800;55.942;37.314;2022-12-07T05:08:57;100524.09;;;-5.49;42.34
44138;BME280;29800;55.942;37.314;2022-12-07T05:11:23;100524.91;;;-5.48;42.37
44138;BME280;29800;55.942;37.314;2022-12-07T05:16:38;100523.41;;;-5.41;42.58
44138;BME280;29800;55.942;37.314;2022-12-07T05:19:05;100529.38;;;-5.38;42.50
44138;BME280;29800;55.942;37.314;2022-12-07T05:21:32;100530.78;;;-5.33;42.22
44138;BME280;29800;55.942;37.314;2022-12-07T05:23:58;100521.03;;;-5.23;42.35
44138;BME280;29800;55.942;37.314;2022-12-07T05:26:24;100523.66;;;-5.12;42.15
44138;BME280;29800;55.942;37.314;2022-12-07T05:28:52;100522.44;;;-5.08;42.08
44138;BME280;29800;55.942;37.314;2022-12-07T05:31:19;100519.50;;;-5.05;42.39
44138;BME280;29800;55.942;37.314;2022-12-07T05:33:45;100519.75;;;-5.08;42.19
44138;BME280;29800;55.942;37.314;2022-12-07T05:36:12;100519.44;;;-5.14;42.42
44138;BME280;29800;55.942;37.314;2022-12-07T05:38:38;100519.06;;;-5.10;42.27
44138;BME280;29800;55.942;37.314;2022-12-07T05:41:06;100510.09;;;-4.99;42.83
44138;BME280;29800;55.942;37.314;2022-12-07T05:43:32;100518.19;;;-4.89;42.14
44138;BME280;29800;55.942;37.314;2022-12-07T05:45:59;100514.81;;;-4.91;42.26
44138;BME280;29800;55.942;37.314;2022-12-07T05:48:26;100513.97;;;-4.92;42.13
44138;BME280;29800;55.942;37.314;2022-12-07T05:50:52;100512.66;;;-4.97;42.60
44138;BME280;29800;55.942;37.314;2022-12-07T05:53:19;100511.94;;;-5.00;42.95
44138;BME280;29800;55.942;37.314;2022-12-07T05:55:45;100513.56;;;-5.08;42.88
44138;BME280;29800;55.942;37.314;2022-12-07T05:58:11;100500.63;;;-5.13;43.20
44138;BME280;29800;55.942;37.314;2022-12-07T06:00:56;100509.41;;;-5.01;43.29
44138;BME280;29800;55.942;37.314;2022-12-07T06:03:22;100504.66;;;-4.97;43.22
44138;BME280;29800;55.942;37.314;2022-12-07T06:05:49;100508.47;;;-4.90;42.91
44138;BME280;29800;55.942;37.314;2022-12-07T06:08:15;100510.03;;;-4.88;42.80
44138;BME280;29800;55.942;37.314;2022-12-07T06:10:41;100505.28;;;-4.84;42.82
44138;BME280;29800;55.942;37.314;2022-12-07T06:13:08;100503.78;;;-4.77;42.84
44138;BME280;29800;55.942;37.314;2022-12-07T06:15:38;100502.53;;;-4.73;42.39
44138;BME280;29800;55.942;37.314;2022-12-07T06:18:04;100501.13;;;-4.77;42.77
44138;BME280;29800;55.942;37.314;2022-12-07T06:20:30;100497.44;;;-4.76;42.91
44138;BME280;29800;55.942;37.314;2022-12-07T06:22:56;100506.47;;;-4.77;42.87
44138;BME280;29800;55.942;37.314;2022-12-07T06:25:23;100502.66;;;-4.74;42.97
44138;BME280;29800;55.942;37.314;2022-12-07T06:27:49;100497.91;;;-4.71;43.03
44138;BME280;29800;55.942;37.314;2022-12-07T06:30:16;100500.84;;;-4.74;43.07
44138;BME280;29800;55.942;37.314;2022-12-07T06:32:42;100496.09;;;-4.70;43.07
44138;BME280;29800;55.942;37.314;2022-12-07T06:35:08;100491.84;;;-4.73;42.99
44138;BME280;29800;55.942;37.314;2022-12-07T06:37:34;100500.84;;;-4.74;43.08
44138;BME280;29800;55.942;37.314;2022-12-07T06:40:00;100500.25;;;-4.77;43.22
44138;BME280;29800;55.942;37.314;2022-12-07T06:42:26;100497.13;;;-4.83;43.53
44138;BME280;29800;55.942;37.314;2022-12-07T06:44:52;100496.31;;;-4.83;43.35
44138;BME280;29800;55.942;37.314;2022-12-07T06:47:18;100496.56;;;-4.86;43.56
44138;BME280;29800;55.942;37.314;2022-12-07T06:49:44;100494.84;;;-4.87;44.22
44138;BME280;29800;55.942;37.314;2022-12-07T06:52:13;100501.66;;;-4.83;44.08
44138;BME280;29800;55.942;37.314;2022-12-07T06:54:39;100501.38;;;-4.80;44.43
44138;BME280;29800;55.942;37.314;2022-12-07T06:57:05;100503.66;;;-4.75;44.50
44138;BME280;29800;55.942;37.314;2022-12-07T06:59:31;100499.88;;;-4.73;44.01
44138;BME280;29800;55.942;37.314;2022-12-07T07:01:57;100497.38;;;-4.65;43.88
44138;BME280;29800;55.942;37.314;2022-12-07T07:04:23;100498.94;;;-4.62;44.08
44138;BME280;29800;55.942;37.314;2022-12-07T07:06:50;100496.97;;;-4.60;44.16
44138;BME280;29800;55.942;37.314;2022-12-07T07:09:16;100494.69;;;-4.65;44.31
44138;BME280;29800;55.942;37.314;2022-12-07T07:11:42;100492.69;;;-4.72;44.68
44138;BME280;29800;55.942;37.314;2022-12-07T07:14:08;100497.38;;;-4.65;44.79
44138;BME280;29800;55.942;37.314;2022-12-07T07:16:34;100511.63;;;-4.54;44.67
44138;BME280;29800;55.942;37.314;2022-12-07T07:19:00;100510.22;;;-4.58;44.99
44138;BME280;29800;55.942;37.314;2022-12-07T07:21:26;100514.41;;;-4.56;44.96
44138;BME280;29800;55.942;37.314;2022-12-07T07:23:53;100497.56;;;-4.56;44.79
44138;BME280;29800;55.942;37.314;2022-12-07T07:26:19;100502.91;;;-4.56;44.83
44138;BME280;29800;55.942;37.314;2022-12-07T07:28:45;100502.38;;;-4.50;44.88
44138;BME280;29800;55.942;37.314;2022-12-07T07:31:11;100502.16;;;-4.37;45.13
44138;BME280;29800;55.942;37.314;2022-12-07T07:33:37;100501.09;;;-4.15;44.96
44138;BME280;29800;55.942;37.314;2022-12-07T07:36:03;100494.94;;;-4.06;45.05
44138;BME280;29800;55.942;37.314;2022-12-07T07:38:30;100490.44;;;-3.96;44.77
44138;BME280;29800;55.942;37.314;2022-12-07T07:40:56;100489.47;;;-3.95;44.36
44138;BME280;29800;55.942;37.314;2022-12-07T07:43:22;100487.34;;;-3.91;44.20
44138;BME280;29800;55.942;37.314;2022-12-07T07:45:48;100482.28;;;-3.94;44.87
44138;BME280;29800;55.942;37.314;2022-12-07T07:48:14;100482.84;;;-3.81;44.66
44138;BME280;29800;55.942;37.314;2022-12-07T07:50:40;100472.03;;;-3.60;44.58
44138;BME280;29800;55.942;37.314;2022-12-07T07:53:06;100480.06;;;-3.40;43.96
44138;BME280;29800;55.942;37.314;2022-12-07T07:55:32;100467.06;;;-3.16;44.07
44138;BME280;29800;55.942;37.314;2022-12-07T07:57:58;100468.00;;;-2.87;43.04
44138;BME280;29800;55.942;37.314;2022-12-07T08:00:25;100462.44;;;-2.66;43.07
44138;BME280;29800;55.942;37.314;2022-12-07T08:02:51;100464.06;;;-2.46;42.44
44138;BME280;29800;55.942;37.314;2022-12-07T08:05:19;100469.19;;;-2.07;41.80
44138;BME280;29800;55.942;37.314;2022-12-07T08:07:57;100461.44;;;-1.64;41.02
44138;BME280;29800;55.942;37.314;2022-12-07T08:10:44;100457.88;;;-1.28;40.31
44138;BME280;29800;55.942;37.314;2022-12-07T08:13:10;100457.91;;;-1.02;39.65
44138;BME280;29800;55.942;37.314;2022-12-07T08:15:38;100448.09;;;-0.85;39.12
44138;BME280;29800;55.942;37.314;2022-12-07T08:18:05;100451.31;;;-0.56;38.70
44138;BME280;29800;55.942;37.314;2022-12-07T08:20:32;100445.63;;;-0.52;37.84
44138;BME280;29800;55.942;37.314;2022-12-07T08:23:01;100447.00;;;-0.40;37.83
44138;BME280;29800;55.942;37.314;2022-12-07T08:25:28;100451.13;;;-0.28;37.98
44138;BME280;29800;55.942;37.314;2022-12-07T08:27:57;100447.81;;;-0.05;37.38
44138;BME280;29800;55.942;37.314;2022-12-07T08:30:23;100436.22;;;0.03;37.14
44138;BME280;29800;55.942;37.314;2022-12-07T08:32:49;100440.81;;;0.18;37.34
44138;BME280;29800;55.942;37.314;2022-12-07T08:35:16;100441.50;;;0.29;36.09
44138;BME280;29800;55.942;37.314;2022-12-07T08:37:42;100427.38;;;0.43;35.99
44138;BME280;29800;55.942;37.314;2022-12-07T08:40:09;100437.66;;;0.56;36.13
44138;BME280;29800;55.942;37.314;2022-12-07T08:42:38;100425.00;;;0.81;36.20
44138;BME280;29800;55.942;37.314;2022-12-07T08:45:11;100426.34;;;1.02;35.50
44138;BME280;29800;55.942;37.314;2022-12-07T08:48:02;100420.56;;;1.13;35.65
44138;BME280;29800;55.942;37.314;2022-12-07T08:50:26;100421.38;;;1.38;34.65
44138;BME280;29800;55.942;37.314;2022-12-07T08:52:55;100417.28;;;1.42;34.67
44138;BME280;29800;55.942;37.314;2022-12-07T08:55:23;100410.31;;;1.17;34.55
44138;BME280;29800;55.942;37.314;2022-12-07T08:57:50;100417.53;;;1.16;33.66
44138;BME280;29800;55.942;37.314;2022-12-07T09:00:16;100418.22;;;1.18;34.37
44138;BME280;29800;55.942;37.314;2022-12-07T09:02:43;100409.44;;;1.16;33.53
44138;BME280;29800;55.942;37.314;2022-12-07T09:05:10;100402.59;;;0.97;33.84
44138;BME280;29800;55.942;37.314;2022-12-07T09:07:37;100401.09;;;0.37;34.22
44138;BME280;29800;55.942;37.314;2022-12-07T09:10:05;100412.50;;;0.06;35.55
44138;BME280;29800;55.942;37.314;2022-12-07T09:12:31;100409.09;;;-0.12;35.34
44138;BME280;29800;55.942;37.314;2022-12-07T09:14:57;100401.63;;;-0.35;35.81
44138;BME280;29800;55.942;37.314;2022-12-07T09:17:23;100412.84;;;-0.48;36.38
44138;BME280;29800;55.942;37.314;2022-12-07T09:19:50;100404.25;;;-0.51;35.64
44138;BME280;29800;55.942;37.314;2022-12-07T09:22:18;100401.25;;;-0.83;36.30
44138;BME280;29800;55.942;37.314;2022-12-07T09:24:45;100409.22;;;-0.99;36.39
44138;BME280;29800;55.942;37.314;2022-12-07T09:27:12;100397.34;;;-1.23;36.37
44138;BME280;29800;55.942;37.314;2022-12-07T09:29:38;100398.72;;;-1.37;36.83
44138;BME280;29800;55.942;37.314;2022-12-07T09:32:04;100390.25;;;-1.50;37.26
44138;BME280;29800;55.942;37.314;2022-12-07T09:34:31;100396.53;;;-1.59;37.11
44138;BME280;29800;55.942;37.314;2022-12-07T09:36:58;100387.97;;;-1.81;38.06
44138;BME280;29800;55.942;37.314;2022-12-07T09:39:24;100395.03;;;-1.80;37.79
44138;BME280;29800;55.942;37.314;2022-12-07T09:41:50;100390.56;;;-1.89;37.70
44138;BME280;29800;55.942;37.314;2022-12-07T09:44:24;100380.44;;;-1.95;38.26
44138;BME280;29800;55.942;37.314;2022-12-07T09:46:51;100389.34;;;-2.13;38.01
44138;BME280;29800;55.942;37.314;2022-12-07T09:49:23;100391.63;;;-2.18;38.43
44138;BME280;29800;55.942;37.314;2022-12-07T09:52:22;100385.81;;;-1.95;38.01
44138;BME280;29800;55.942;37.314;2022-12-07T09:54:51;100384.50;;;-2.09;38.24
44138;BME280;29800;55.942;37.314;2022-12-07T09:57:20;100387.34;;;-2.11;38.34
44138;BME280;29800;55.942;37.314;2022-12-07T09:59:48;100384.81;;;-2.12;38.35
44138;BME280;29800;55.942;37.314;2022-12-07T10:04:52;100387.09;;;-2.17;38.76
44138;BME280;29800;55.942;37.314;2022-12-07T10:07:21;100387.47;;;-2.30;38.46
44138;BME280;29800;55.942;37.314;2022-12-07T10:09:47;100387.28;;;-2.47;38.87
44138;BME280;29800;55.942;37.314;2022-12-07T10:12:14;100381.13;;;-2.57;38.79
44138;BME280;29800;55.942;37.314;2022-12-07T10:14:59;100381.94;;;-2.47;39.01
44138;BME280;29800;55.942;37.314;2022-12-07T10:17:36;100371.78;;;-2.53;38.71
44138;BME280;29800;55.942;37.314;2022-12-07T10:20:22;100376.16;;;-2.52;38.59
44138;BME280;29800;55.942;37.314;2022-12-07T10:23:02;100370.81;;;-2.80;39.60
44138;BME280;29800;55.942;37.314;2022-12-07T10:25:32;100376.63;;;-2.94;39.41
44138;BME280;29800;55.942;37.314;2022-12-07T10:28:03;100369.19;;;-3.00;39.41
44138;BME280;29800;55.942;37.314;2022-12-07T10:30:48;100361.25;;;-2.92;39.65
44138;BME280;29800;55.942;37.314;2022-12-07T10:33:35;100369.28;;;-2.92;39.69
44138;BME280;29800;55.942;37.314;2022-12-07T10:36:35;100362.69;;;-2.98;40.09
44138;BME280;29800;55.942;37.314;2022-12-07T10:39:12;100363.13;;;-3.02;39.44
44138;BME280;29800;55.942;37.314;2022-12-07T10:42:01;100363.84;;;-3.10;39.39
44138;BME280;29800;55.942;37.314;2022-12-07T10:44:30;100358.84;;;-3.23;40.01
44138;BME280;29800;55.942;37.314;2022-12-07T10:49:55;100351.63;;;-3.12;40.46
44138;BME280;29800;55.942;37.314;2022-12-07T11:00:23;100343.66;;;-3.42;40.09
44138;BME280;29800;55.942;37.314;2022-12-07T11:03:25;100358.59;;;-3.29;40.11
44138;BME280;29800;55.942;37.314;2022-12-07T11:06:33;100344.34;;;-3.30;39.58
44138;BME280;29800;55.942;37.314;2022-12-07T11:11:33;100335.78;;;-3.43;40.09
44138;BME280;29800;55.942;37.314;2022-12-07T11:16:52;100332.38;;;-3.26;39.65
44138;BME280;29800;55.942;37.314;2022-12-07T11:21:58;100326.25;;;-3.56;40.45
44138;BME280;29800;55.942;37.314;2022-12-07T11:24:35;100316.94;;;-3.52;40.85
44138;BME280;29800;55.942;37.314;2022-12-07T11:27:18;100317.75;;;-3.41;40.15
44138;BME280;29800;55.942;37.314;2022-12-07T11:30:00;100315.19;;;-3.33;40.58
44138;BME280;29800;55.942;37.314;2022-12-07T11:35:39;100304.69;;;-3.17;40.08
44138;BME280;29800;55.942;37.314;2022-12-07T11:38:18;100311.09;;;-3.27;40.21
44138;BME280;29800;55.942;37.314;2022-12-07T11:40:49;100300.53;;;-3.29;40.13
44138;BME280;29800;55.942;37.314;2022-12-07T11:43:32;100303.84;;;-3.17;40.21
44138;BME280;29800;55.942;37.314;2022-12-07T11:46:07;100294.41;;;-3.11;39.71
44138;BME280;29800;55.942;37.314;2022-12-07T11:48:47;100299.19;;;-3.15;40.13
44138;BME280;29800;55.942;37.314;2022-12-07T11:51:19;100294.47;;;-3.31;39.74
44138;BME280;29800;55.942;37.314;2022-12-07T11:53:49;100284.78;;;-3.42;40.79
44138;BME280;29800;55.942;37.314;2022-12-07T11:56:23;100289.56;;;-3.36;40.47
44138;BME280;29800;55.942;37.314;2022-12-07T11:58:54;100292.69;;;-3.50;40.71
44138;BME280;29800;55.942;37.314;2022-12-07T12:06:38;100275.81;;;-3.60;41.34
44138;BME280;29800;55.942;37.314;2022-12-07T12:09:19;100281.84;;;-3.48;41.16
44138;BME280;29800;55.942;37.314;2022-12-07T12:14:43;100274.38;;;-3.55;41.27
44138;BME280;29800;55.942;37.314;2022-12-07T12:20:06;100272.72;;;-3.56;41.46
44138;BME280;29800;55.942;37.314;2022-12-07T12:22:44;100265.97;;;-3.70;41.71
44138;BME280;29800;55.942;37.314;2022-12-07T12:25:42;100253.19;;;-3.76;41.77
44138;BME280;29800;55.942;37.314;2022-12-07T12:28:49;100271.94;;;-3.85;42.29
44138;BME280;29800;55.942;37.314;2022-12-07T12:33:49;100270.56;;;-4.09;42.95
44138;BME280;29800;55.942;37.314;2022-12-07T12:36:17;100270.84;;;-4.12;43.16
44138;BME280;29800;55.942;37.314;2022-12-07T12:47:40;100279.00;;;-4.23;42.96
44138;BME280;29800;55.942;37.314;2022-12-07T12:55:18;100271.13;;;-4.25;42.86
44138;BME280;29800;55.942;37.314;2022-12-07T12:57:48;100271.13;;;-4.35;42.87
44138;BME280;29800;55.942;37.314;2022-12-07T13:00:33;100267.06;;;-4.39;43.59
44138;BME280;29800;55.942;37.314;2022-12-07T13:02:59;100275.09;;;-4.39;43.08
44138;BME280;29800;55.942;37.314;2022-12-07T13:05:30;100259.88;;;-4.48;43.50
44138;BME280;29800;55.942;37.314;2022-12-07T13:08:03;100265.78;;;-4.54;43.81
44138;BME280;29800;55.942;37.314;2022-12-07T13:10:40;100267.19;;;-4.60;44.14
44138;BME280;29800;55.942;37.314;2022-12-07T13:15:49;100260.56;;;-4.66;44.11
44138;BME280;29800;55.942;37.314;2022-12-07T13:18:37;100261.84;;;-4.60;44.01
44138;BME280;29800;55.942;37.314;2022-12-07T13:23:37;100261.69;;;-4.78;44.29
44138;BME280;29800;55.942;37.314;2022-12-07T13:26:17;100258.19;;;-4.78;44.71
44138;BME280;29800;55.942;37.314;2022-12-07T13:28:52;100254.50;;;-4.77;44.29
44138;BME280;29800;55.942;37.314;2022-12-07T13:31:30;100261.25;;;-4.83;44.65
44138;BME280;29800;55.942;37.314;2022-12-07T13:33:57;100267.72;;;-4.86;44.47
44138;BME280;29800;55.942;37.314;2022-12-07T13:36:26;100260.09;;;-4.90;44.24
44138;BME280;29800;55.942;37.314;2022-12-07T13:39:00;100252.78;;;-5.08;45.31
44138;BME280;29800;55.942;37.314;2022-12-07T13:41:36;100253.16;;;-5.22;45.56
44138;BME280;29800;55.942;37.314;2022-12-07T13:44:08;100253.00;;;-5.21;45.75
44138;BME280;29800;55.942;37.314;2022-12-07T13:47:18;100270.03;;;-5.12;45.19
44138;BME280;29800;55.942;37.314;2022-12-07T13:49:50;100258.19;;;-5.29;45.60
44138;BME280;29800;55.942;37.314;2022-12-07T13:52:28;100251.41;;;-5.33;46.25
44138;BME280;29800;55.942;37.314;2022-12-07T13:55:00;100257.88;;;-5.36;45.87
44138;BME280;29800;55.942;37.314;2022-12-07T13:57:30;100249.88;;;-5.36;46.08
44138;BME280;29800;55.942;37.314;2022-12-07T14:00:00;100258.00;;;-5.37;46.33
44138;BME280;29800;55.942;37.314;2022-12-07T14:02:27;100258.28;;;-5.40;46.37
44138;BME280;29800;55.942;37.314;2022-12-07T14:05:15;100243.97;;;-5.39;46.54
44138;BME280;29800;55.942;37.314;2022-12-07T14:13:44;100249.56;;;-5.73;47.50
44138;BME280;29800;55.942;37.314;2022-12-07T14:16:31;100257.44;;;-5.72;47.15
44138;BME280;29800;55.942;37.314;2022-12-07T14:19:00;100238.63;;;-6.01;48.13
44138;BME280;29800;55.942;37.314;2022-12-07T14:21:33;100246.78;;;-5.93;47.91
44138;BME280;29800;55.942;37.314;2022-12-07T14:24:19;100243.63;;;-6.07;48.66
44138;BME280;29800;55.942;37.314;2022-12-07T14:26:48;100241.94;;;-6.08;48.33
44138;BME280;29800;55.942;37.314;2022-12-07T14:31:57;100246.63;;;-6.22;49.17
44138;BME280;29800;55.942;37.314;2022-12-07T14:34:25;100254.38;;;-6.19;48.68
44138;BME280;29800;55.942;37.314;2022-12-07T14:36:51;100243.84;;;-6.20;48.55
44138;BME280;29800;55.942;37.314;2022-12-07T14:39:17;100241.28;;;-6.22;48.87
44138;BME280;29800;55.942;37.314;2022-12-07T14:41:43;100236.59;;;-6.30;48.90
44138;BME280;29800;55.942;37.314;2022-12-07T14:44:20;100241.56;;;-6.25;49.01